createdAt,value
2022-08-16T00:02:13.051Z,98.30
2022-08-16T00:05:15.813Z,98.50
2022-08-16T00:08:35.737Z,98.50
2022-08-16T00:11:39.427Z,98.70
2022-08-16T00:14:41.358Z,98.60
2022-08-16T00:17:56.724Z,98.60
2022-08-16T00:20:59.393Z,99.00
2022-08-16T00:24:04.647Z,98.90
2022-08-16T00:27:08.514Z,99.40
2022-08-16T00:30:25.960Z,99.00
2022-08-16T00:33:31.189Z,98.70
2022-08-16T00:36:34.399Z,99.00
2022-08-16T00:39:36.524Z,99.10
2022-08-16T00:42:41.126Z,98.90
2022-08-16T00:46:22.405Z,98.90
2022-08-16T00:49:24.138Z,99.10
2022-08-16T00:52:30.043Z,99.00
2022-08-16T00:55:37.827Z,99.80
2022-08-16T00:58:44.077Z,99.90
2022-08-16T01:01:46.157Z,99.90
2022-08-16T01:05:09.086Z,99.90
2022-08-16T01:08:36.380Z,99.90
2022-08-16T01:11:36.063Z,99.80
2022-08-16T01:14:58.751Z,99.90
2022-08-16T01:18:02.183Z,99.70
2022-08-16T01:21:22.313Z,99.80
2022-08-16T01:24:51.477Z,99.80
2022-08-16T01:27:58.502Z,99.70
2022-08-16T01:31:01.874Z,99.50
2022-08-16T01:34:03.902Z,99.80
2022-08-16T01:37:10.115Z,99.70
2022-08-16T01:40:12.824Z,99.80
2022-08-16T01:43:17.864Z,99.90
2022-08-16T01:46:29.462Z,99.90
2022-08-16T01:50:40.599Z,99.90
2022-08-16T01:53:05.708Z,99.90
2022-08-16T01:56:08.092Z,99.90
2022-08-16T01:59:25.655Z,99.90
2022-08-16T02:02:28.495Z,99.90
2022-08-16T02:05:31.153Z,99.80
2022-08-16T02:08:34.299Z,99.80
2022-08-16T02:11:48.207Z,99.90
2022-08-16T02:14:54.709Z,99.80
2022-08-16T02:17:58.063Z,99.90
2022-08-16T02:21:00.147Z,99.80
2022-08-16T02:24:30.752Z,99.90
2022-08-16T02:27:26.907Z,99.90
2022-08-16T02:30:37.215Z,99.90
2022-08-16T02:33:50.251Z,99.90
2022-08-16T02:36:53.718Z,99.90
2022-08-16T02:39:57.283Z,99.90
2022-08-16T02:42:59.611Z,99.90
2022-08-16T02:46:02.790Z,99.90
2022-08-16T02:49:10.522Z,99.90
2022-08-16T02:52:17.133Z,99.90
2022-08-16T02:55:40.835Z,99.90
2022-08-16T02:58:45.356Z,99.90
2022-08-16T03:01:47.623Z,99.90
2022-08-16T03:04:52.568Z,99.90
2022-08-16T03:07:54.690Z,99.90
2022-08-16T03:10:59.113Z,99.90
2022-08-16T03:14:04.675Z,99.90
2022-08-16T03:17:09.620Z,99.90
2022-08-16T03:20:12.894Z,99.90
2022-08-16T03:23:20.140Z,99.90
2022-08-16T03:26:22.686Z,99.90
2022-08-16T03:29:29.927Z,99.90
2022-08-16T03:32:32.355Z,99.90
2022-08-16T03:35:35.934Z,99.90
2022-08-16T03:38:38.132Z,99.90
2022-08-16T03:41:50.573Z,99.90
2022-08-16T03:45:03.070Z,99.90
2022-08-16T03:48:07.231Z,99.90
2022-08-16T03:51:12.367Z,99.90
2022-08-16T03:54:15.134Z,99.90
2022-08-16T03:57:17.340Z,99.90
2022-08-16T04:00:40.750Z,99.90
2022-08-16T04:03:44.271Z,99.90
2022-08-16T04:06:46.565Z,99.90
2022-08-16T04:09:48.925Z,99.90
2022-08-16T04:12:54.626Z,99.90
2022-08-16T04:15:59.415Z,99.90
2022-08-16T04:19:04.900Z,99.90
2022-08-16T04:22:08.715Z,99.90
2022-08-16T04:25:11.758Z,99.90
2022-08-16T04:28:51.942Z,99.90
2022-08-16T04:31:36.712Z,99.90
2022-08-16T04:34:39.811Z,99.90
2022-08-16T04:37:43.064Z,99.90
2022-08-16T04:40:45.578Z,99.90
2022-08-16T04:43:51.417Z,99.90
2022-08-16T04:47:01.043Z,99.90
2022-08-16T04:50:14.453Z,99.90
2022-08-16T04:53:16.737Z,99.90
2022-08-16T04:56:21.240Z,99.90
2022-08-16T04:59:26.932Z,99.90
2022-08-16T05:02:41.842Z,99.90
2022-08-16T05:05:58.974Z,99.90
2022-08-16T05:09:04.311Z,99.90
2022-08-16T05:12:07.319Z,99.90
2022-08-16T05:15:13.374Z,99.90
2022-08-16T05:18:17.143Z,99.90
2022-08-16T05:21:24.602Z,99.90
2022-08-16T05:24:32.954Z,99.90
2022-08-16T05:27:42.699Z,99.90
2022-08-16T05:30:45.868Z,99.90
2022-08-16T05:33:54.642Z,99.90
2022-08-16T05:36:58.708Z,99.90
2022-08-16T05:40:01.156Z,99.90
2022-08-16T05:43:08.465Z,99.90
2022-08-16T05:46:30.211Z,99.90
2022-08-16T05:49:38.609Z,99.90
2022-08-16T05:52:44.938Z,99.90
2022-08-16T05:55:47.002Z,99.90
2022-08-16T05:58:49.417Z,99.90
2022-08-16T06:01:53.032Z,99.90
2022-08-16T06:04:55.622Z,99.90
2022-08-16T06:07:58.333Z,99.90
2022-08-16T06:11:10.369Z,99.90
2022-08-16T06:14:13.248Z,99.90
2022-08-16T06:17:16.921Z,99.90
2022-08-16T06:20:25.659Z,99.90
2022-08-16T06:23:37.995Z,99.90
2022-08-16T06:26:45.932Z,99.90
2022-08-16T06:29:59.653Z,99.90
2022-08-16T06:33:01.857Z,99.90
2022-08-16T06:36:05.709Z,99.90
2022-08-16T06:39:10.634Z,99.90
2022-08-16T06:42:12.557Z,99.90
2022-08-16T06:45:21.053Z,99.90
2022-08-16T06:48:32.952Z,99.90
2022-08-16T06:51:46.807Z,99.90
2022-08-16T06:54:50.579Z,99.90
2022-08-16T06:57:54.735Z,99.90
2022-08-16T07:00:58.154Z,99.90
2022-08-16T07:04:01.882Z,99.90
2022-08-16T07:07:06.146Z,99.90
2022-08-16T07:10:12.144Z,99.90
2022-08-16T07:13:26.564Z,99.90
2022-08-16T07:16:38.296Z,99.90
2022-08-16T07:20:02.548Z,98.60
2022-08-16T07:23:02.743Z,96.90
2022-08-16T07:26:25.299Z,95.90
2022-08-16T07:29:31.647Z,95.80
2022-08-16T07:32:34.024Z,93.70
2022-08-16T07:35:37.539Z,92.10
2022-08-16T07:38:46.729Z,92.30
2022-08-16T07:41:48.982Z,92.30
2022-08-16T07:44:51.753Z,91.20
2022-08-16T07:47:53.801Z,87.50
2022-08-16T07:50:59.195Z,85.30
2022-08-16T07:54:09.701Z,84.20
2022-08-16T07:57:12.701Z,80.70
2022-08-16T08:00:18.595Z,78.40
2022-08-16T08:03:20.815Z,79.00
2022-08-16T08:06:25.319Z,80.20
2022-08-16T08:09:27.317Z,80.90
2022-08-16T08:12:32.480Z,83.30
2022-08-16T08:15:38.605Z,79.90
2022-08-16T08:19:01.003Z,78.80
2022-08-16T08:22:05.890Z,76.50
2022-08-16T08:25:08.925Z,72.70
2022-08-16T08:28:15.717Z,72.10
2022-08-16T08:31:17.786Z,70.80
2022-08-16T08:34:22.261Z,67.80
2022-08-16T08:37:25.653Z,66.00
2022-08-16T08:40:29.023Z,63.30
2022-08-16T08:43:31.226Z,61.60
2022-08-16T08:46:43.933Z,57.80
2022-08-16T08:50:09.173Z,56.80
2022-08-16T08:53:13.214Z,56.90
2022-08-16T08:56:23.464Z,55.90
2022-08-16T08:59:27.917Z,52.80
2022-08-16T09:02:30.374Z,51.60
2022-08-16T09:05:35.689Z,52.80
2022-08-16T09:08:40.017Z,50.80
2022-08-16T09:12:04.422Z,51.80
2022-08-16T09:15:13.461Z,51.40
2022-08-16T09:18:26.540Z,52.40
2022-08-16T09:21:31.279Z,53.30
2022-08-16T09:24:52.064Z,56.30
2022-08-16T09:28:02.743Z,61.90
2022-08-16T09:31:14.875Z,62.50
2022-08-16T09:34:19.295Z,61.70
2022-08-16T09:37:29.138Z,62.30
2022-08-16T09:40:42.505Z,63.50
2022-08-16T09:43:59.193Z,66.00
2022-08-16T09:47:03.805Z,66.50
2022-08-16T09:50:13.917Z,63.70
2022-08-16T09:53:25.922Z,58.60
2022-08-16T09:56:30.005Z,55.50
2022-08-16T09:59:38.241Z,51.10
2022-08-16T10:02:44.237Z,50.20
2022-08-16T10:05:50.497Z,49.30
2022-08-16T10:09:05.852Z,48.90
2022-08-16T10:12:28.211Z,45.60
2022-08-16T10:15:30.498Z,47.80
2022-08-16T10:18:56.726Z,51.10
2022-08-16T10:21:56.744Z,53.90
2022-08-16T10:24:59.922Z,52.60
2022-08-16T10:28:27.942Z,50.30
2022-08-16T10:31:44.543Z,48.60
2022-08-16T10:34:48.311Z,52.60
2022-08-16T10:37:54.512Z,54.50
2022-08-16T10:40:56.671Z,51.70
2022-08-16T10:43:59.360Z,51.30
2022-08-16T10:47:02.373Z,51.30
2022-08-16T10:50:06.000Z,47.50
2022-08-16T10:53:21.591Z,43.80
2022-08-16T10:56:56.020Z,43.40
2022-08-16T10:59:52.995Z,41.90
2022-08-16T11:03:04.855Z,41.10
2022-08-16T11:06:09.581Z,41.50
2022-08-16T11:09:24.355Z,41.40
2022-08-16T11:12:30.630Z,40.20
2022-08-16T11:15:34.418Z,39.70
2022-08-16T11:18:48.685Z,40.20
2022-08-16T11:22:23.249Z,40.90
2022-08-16T11:32:11.204Z,42.10
2022-08-16T11:35:16.681Z,42.60
2022-08-16T11:38:46.789Z,44.10
2022-08-16T11:41:43.590Z,46.90
2022-08-16T11:44:52.669Z,49.90
2022-08-16T11:48:00.333Z,50.90
2022-08-16T11:51:02.941Z,50.60
2022-08-16T11:54:05.286Z,53.20
2022-08-16T11:57:12.014Z,52.90
2022-08-16T12:00:37.531Z,52.90
2022-08-16T12:03:37.047Z,52.50
2022-08-16T12:06:39.146Z,54.50
2022-08-16T12:09:43.553Z,57.70
2022-08-16T12:12:46.810Z,60.10
2022-08-16T12:15:49.256Z,62.20
2022-08-16T12:18:53.799Z,62.40
2022-08-16T12:21:58.092Z,62.20
2022-08-16T12:25:00.908Z,62.30
2022-08-16T12:28:03.703Z,62.40
2022-08-16T12:31:06.011Z,60.90
2022-08-16T12:34:09.704Z,60.70
2022-08-16T12:37:24.389Z,61.10
2022-08-16T12:40:32.934Z,62.20
2022-08-16T12:43:35.639Z,63.80
2022-08-16T12:46:38.877Z,64.70
2022-08-16T12:49:42.184Z,64.30
2022-08-16T12:52:52.335Z,63.30
2022-08-16T12:55:55.266Z,63.60
2022-08-16T12:58:57.901Z,63.00
2022-08-16T13:02:02.703Z,62.90
2022-08-16T13:05:08.388Z,62.80
2022-08-16T13:08:19.930Z,62.50
2022-08-16T13:11:30.475Z,61.80
2022-08-16T13:14:37.905Z,63.00
2022-08-16T13:17:43.196Z,64.70
2022-08-16T13:20:45.404Z,64.60
2022-08-16T13:23:47.983Z,65.10
2022-08-16T13:26:53.443Z,63.60
2022-08-16T13:29:57.553Z,64.60
2022-08-16T13:33:00.427Z,65.20
2022-08-16T13:36:05.717Z,63.50
2022-08-16T13:39:07.680Z,62.90
2022-08-16T13:42:10.639Z,60.60
2022-08-16T13:45:16.272Z,60.80
2022-08-16T13:48:19.361Z,62.90
2022-08-16T13:51:29.189Z,63.40
2022-08-16T13:54:32.940Z,62.60
2022-08-16T13:58:35.338Z,62.70
2022-08-16T14:00:57.378Z,63.10
2022-08-16T14:04:02.016Z,62.50
2022-08-16T14:07:06.621Z,61.70
2022-08-16T14:10:11.750Z,61.50
2022-08-16T14:13:20.823Z,61.30
2022-08-16T14:16:34.108Z,60.60
2022-08-16T14:19:36.824Z,60.80
2022-08-16T14:22:54.579Z,60.80
2022-08-16T14:25:58.831Z,60.60
2022-08-16T14:29:03.994Z,61.10
2022-08-16T14:32:06.738Z,61.30
2022-08-16T14:35:11.474Z,61.00
2022-08-16T14:38:23.938Z,61.00
2022-08-16T14:41:26.821Z,61.90
2022-08-16T14:44:28.980Z,62.30
2022-08-16T14:47:34.353Z,62.30
2022-08-16T14:50:37.284Z,61.60
2022-08-16T14:53:39.391Z,60.60
2022-08-16T14:56:54.873Z,60.30
2022-08-16T15:00:00.804Z,60.20
2022-08-16T15:03:09.664Z,59.70
2022-08-16T15:06:14.786Z,58.70
2022-08-16T15:09:18.540Z,59.90
2022-08-16T15:12:30.543Z,60.50
2022-08-16T15:15:35.236Z,60.90
2022-08-16T15:18:39.305Z,60.80
2022-08-16T15:21:42.494Z,61.20
2022-08-16T15:24:44.489Z,61.40
2022-08-16T15:27:55.076Z,61.70
2022-08-16T15:31:00.196Z,60.70
2022-08-16T15:34:05.117Z,60.40
2022-08-16T15:37:07.394Z,61.10
2022-08-16T15:40:16.375Z,61.20
2022-08-16T15:43:39.821Z,62.30
2022-08-16T15:46:56.646Z,63.50
2022-08-16T15:50:01.454Z,63.90
2022-08-16T15:53:12.433Z,63.60
2022-08-16T15:56:14.717Z,63.50
2022-08-16T15:59:17.524Z,64.60
2022-08-16T16:02:27.998Z,63.50
2022-08-16T16:05:33.338Z,64.70
2022-08-16T16:08:35.831Z,63.90
2022-08-16T16:11:41.361Z,64.70
2022-08-16T16:14:44.230Z,65.70
2022-08-16T16:17:51.149Z,66.20
2022-08-16T16:20:56.329Z,66.50
2022-08-16T16:24:03.114Z,65.90
2022-08-16T16:27:21.819Z,66.30
2022-08-16T16:30:33.297Z,66.80
2022-08-16T16:33:47.921Z,65.70
2022-08-16T16:36:52.546Z,67.30
2022-08-16T16:39:56.386Z,68.60
2022-08-16T16:43:00.260Z,69.80
2022-08-16T16:46:05.897Z,69.40
2022-08-16T16:49:25.635Z,70.00
2022-08-16T16:52:43.367Z,70.80
2022-08-16T16:55:52.163Z,71.80
2022-08-16T16:58:58.047Z,73.00
2022-08-16T17:02:41.691Z,73.10
2022-08-16T17:05:29.342Z,73.20
2022-08-16T17:08:35.383Z,72.90
2022-08-16T17:11:40.044Z,73.50
2022-08-16T17:14:42.665Z,73.80
2022-08-16T17:19:17.131Z,73.90
2022-08-16T17:21:07.755Z,74.20
2022-08-16T17:24:18.009Z,73.50
2022-08-16T17:27:32.932Z,72.70
2022-08-16T17:30:45.423Z,73.10
2022-08-16T17:33:54.557Z,75.00
2022-08-16T17:36:58.929Z,75.90
2022-08-16T17:40:19.255Z,76.60
2022-08-16T17:43:44.587Z,78.00
2022-08-16T17:46:52.488Z,77.10
2022-08-16T17:49:54.906Z,76.40
2022-08-16T17:52:57.306Z,76.50
2022-08-16T17:56:00.407Z,77.50
2022-08-16T17:59:02.447Z,78.40
2022-08-16T18:02:42.670Z,78.90
2022-08-16T18:05:28.570Z,79.60
2022-08-16T18:08:34.419Z,80.00
2022-08-16T18:11:43.197Z,80.20
2022-08-16T18:16:36.937Z,79.80
2022-08-16T18:19:39.141Z,79.80
2022-08-16T18:22:41.677Z,80.20
2022-08-16T18:25:44.945Z,79.70
2022-08-16T18:28:47.167Z,80.30
2022-08-16T18:31:50.984Z,81.00
2022-08-16T18:34:54.285Z,81.50
2022-08-16T18:37:56.828Z,82.00
2022-08-16T18:40:59.252Z,82.70
2022-08-16T18:44:26.311Z,83.90
2022-08-16T18:47:23.338Z,85.00
2022-08-16T18:50:25.806Z,85.80
2022-08-16T18:53:28.187Z,86.40
2022-08-16T18:56:55.744Z,86.20
2022-08-16T18:59:53.366Z,86.80
2022-08-16T19:03:02.150Z,87.60
2022-08-16T19:06:06.760Z,88.80
2022-08-16T19:09:13.069Z,89.20
2022-08-16T19:12:16.125Z,89.50
2022-08-16T19:15:22.217Z,90.20
2022-08-16T19:18:24.968Z,90.70
2022-08-16T19:21:27.093Z,90.90
2022-08-16T19:24:29.510Z,90.70
2022-08-16T19:27:33.805Z,90.80
2022-08-16T19:30:36.995Z,91.50
2022-08-16T19:33:39.674Z,91.50
2022-08-16T19:36:41.977Z,91.10
2022-08-16T19:39:44.811Z,92.10
2022-08-16T19:42:48.567Z,92.20
2022-08-16T19:45:52.414Z,92.60
2022-08-16T19:48:54.343Z,93.10
2022-08-16T19:51:56.823Z,93.80
2022-08-16T19:55:04.934Z,93.60
2022-08-16T19:58:07.067Z,93.80
2022-08-16T20:01:09.277Z,93.70
2022-08-16T20:04:12.876Z,93.60
2022-08-16T20:07:15.926Z,93.60
2022-08-16T20:10:19.080Z,93.70
2022-08-16T20:13:23.366Z,93.70
2022-08-16T20:16:25.591Z,93.80
2022-08-16T20:19:28.794Z,94.00
2022-08-16T20:23:02.457Z,94.30
2022-08-16T20:25:55.951Z,94.50
2022-08-16T20:28:57.959Z,94.60
2022-08-16T20:32:00.253Z,94.60
2022-08-16T20:35:02.874Z,95.00
2022-08-16T20:38:05.114Z,95.30
2022-08-16T20:41:07.012Z,95.50
2022-08-16T20:44:10.372Z,95.40
2022-08-16T20:47:12.583Z,95.60
2022-08-16T20:50:14.669Z,96.10
2022-08-16T20:53:16.833Z,96.10
2022-08-16T20:56:18.794Z,96.00
2022-08-16T20:59:21.069Z,96.00
2022-08-16T21:02:24.399Z,95.80
2022-08-16T21:05:31.143Z,95.80
2022-08-16T21:08:53.258Z,95.70
2022-08-16T21:12:00.882Z,95.90
2022-08-16T21:15:05.417Z,95.90
2022-08-16T21:18:07.340Z,96.10
2022-08-16T21:21:09.662Z,96.10
2022-08-16T21:24:11.712Z,96.20
2022-08-16T21:27:14.803Z,96.40
2022-08-16T21:30:20.929Z,96.60
2022-08-16T21:33:28.383Z,96.70
2022-08-16T21:36:42.411Z,96.70
2022-08-16T21:39:44.760Z,96.70
2022-08-16T21:42:47.255Z,96.70
2022-08-16T21:45:54.855Z,96.80
2022-08-16T21:48:57.970Z,96.80
2022-08-16T21:52:00.265Z,97.20
2022-08-16T21:55:04.160Z,97.30
2022-08-16T21:58:06.414Z,97.30
2022-08-16T22:01:08.563Z,97.50
2022-08-16T22:04:36.749Z,97.50
2022-08-16T22:07:33.408Z,97.60
2022-08-16T22:11:04.669Z,97.40
2022-08-16T22:14:04.411Z,97.60
2022-08-16T22:17:06.388Z,97.40
2022-08-16T22:20:09.739Z,97.60
2022-08-16T22:23:14.062Z,97.60
2022-08-16T22:26:16.101Z,97.50
2022-08-16T22:29:18.208Z,97.40
2022-08-16T22:32:20.287Z,97.20
2022-08-16T22:35:22.280Z,97.20
2022-08-16T22:38:55.846Z,97.20
2022-08-16T22:41:49.875Z,97.30
2022-08-16T22:45:12.771Z,97.20
2022-08-16T22:48:15.478Z,97.20
2022-08-16T22:51:18.169Z,97.10
2022-08-16T22:54:43.797Z,97.30
2022-08-16T22:57:43.018Z,97.30
2022-08-16T23:00:45.244Z,97.50
2022-08-16T23:03:47.184Z,97.40
2022-08-16T23:06:49.554Z,97.40
2022-08-16T23:09:51.511Z,97.60
2022-08-16T23:12:58.908Z,97.50
2022-08-16T23:16:11.224Z,97.40
2022-08-16T23:19:15.061Z,97.60
2022-08-16T23:22:17.146Z,97.70
2022-08-16T23:25:21.284Z,97.90
2022-08-16T23:28:26.180Z,98.00
2022-08-16T23:31:28.312Z,97.80
2022-08-16T23:34:30.294Z,97.90
2022-08-16T23:37:33.250Z,97.80
2022-08-16T23:40:36.365Z,98.10
2022-08-16T23:43:43.269Z,97.80
2022-08-16T23:46:47.889Z,97.90
2022-08-16T23:50:00.528Z,98.00
2022-08-16T23:53:10.330Z,98.10
2022-08-16T23:56:13.785Z,98.20
2022-08-16T23:59:15.831Z,98.30
